Alanreed, Texas
Current Conditions -  °F | °C
As of 4:15 AM on Tuesday 21 Oct 2014 (Local Time) from KPPA Reporting Station
Clear Clear  
Wind Chill: 54°   Ceiling: Unl
Heat Index: 54°   Visibility: 10mi
Dew Point: 51°   Wind: 7mph
Humidity: 90%   Direction: 210°SSW
Pressure: 30.1"   Gusts: NA
Location:  35.21°N, 100.74°W
Report Text: KPPA 210915Z AUTO 21006KT 10SM CLR 12/11 A3010 RMK AO2 T01210105 PNO
Loading
Personal Weather Stations






























Interactive Weather Map
Tropical Storm Tracking
New forecast layout! Learn more

10-Day Weather Forecast

Advertisements
Track Severe Weather on mobile